sensor_id;sensor_type;location;lat;lon;timestamp;P1;durP1;ratioP1;P2;durP2;ratioP2
30303;SDS011;17112;48.636;10.152;2024-01-06T00:02:24;11.10;;;6.28;;
30303;SDS011;17112;48.636;10.152;2024-01-06T00:04:50;11.63;;;6.13;;
30303;SDS011;17112;48.636;10.152;2024-01-06T00:07:16;11.27;;;5.93;;
30303;SDS011;17112;48.636;10.152;2024-01-06T00:09:42;9.52;;;5.72;;
30303;SDS011;17112;48.636;10.152;2024-01-06T00:12:07;11.55;;;5.95;;
30303;SDS011;17112;48.636;10.152;2024-01-06T00:14:33;10.88;;;6.18;;
30303;SDS011;17112;48.636;10.152;2024-01-06T00:16:59;13.15;;;5.47;;
30303;SDS011;17112;48.636;10.152;2024-01-06T00:19:25;11.00;;;5.53;;
30303;SDS011;17112;48.636;10.152;2024-01-06T00:21:50;9.57;;;5.22;;
30303;SDS011;17112;48.636;10.152;2024-01-06T00:24:17;9.13;;;5.55;;
30303;SDS011;17112;48.636;10.152;2024-01-06T00:26:42;9.93;;;6.05;;
30303;SDS011;17112;48.636;10.152;2024-01-06T00:29:08;11.25;;;6.32;;
30303;SDS011;17112;48.636;10.152;2024-01-06T00:31:33;13.70;;;6.15;;
30303;SDS011;17112;48.636;10.152;2024-01-06T00:33:59;10.10;;;5.78;;
30303;SDS011;17112;48.636;10.152;2024-01-06T00:36:25;12.30;;;5.65;;
30303;SDS011;17112;48.636;10.152;2024-01-06T00:38:51;9.95;;;5.60;;
30303;SDS011;17112;48.636;10.152;2024-01-06T00:41:17;11.10;;;6.13;;
30303;SDS011;17112;48.636;10.152;2024-01-06T00:43:42;12.43;;;6.22;;
30303;SDS011;17112;48.636;10.152;2024-01-06T00:46:08;9.52;;;5.22;;
30303;SDS011;17112;48.636;10.152;2024-01-06T00:48:34;10.85;;;5.47;;
30303;SDS011;17112;48.636;10.152;2024-01-06T00:50:59;11.13;;;5.45;;
30303;SDS011;17112;48.636;10.152;2024-01-06T00:53:25;9.98;;;5.15;;
30303;SDS011;17112;48.636;10.152;2024-01-06T00:55:51;7.78;;;4.13;;
30303;SDS011;17112;48.636;10.152;2024-01-06T00:58:16;8.57;;;4.93;;
30303;SDS011;17112;48.636;10.152;2024-01-06T01:00:42;9.02;;;4.85;;
30303;SDS011;17112;48.636;10.152;2024-01-06T01:03:08;9.80;;;2.88;;
30303;SDS011;17112;48.636;10.152;2024-01-06T01:05:33;5.80;;;2.83;;
30303;SDS011;17112;48.636;10.152;2024-01-06T01:07:59;4.90;;;3.00;;
30303;SDS011;17112;48.636;10.152;2024-01-06T01:10:24;4.90;;;2.15;;
30303;SDS011;17112;48.636;10.152;2024-01-06T01:12:50;7.25;;;2.45;;
30303;SDS011;17112;48.636;10.152;2024-01-06T01:15:16;7.80;;;2.90;;
30303;SDS011;17112;48.636;10.152;2024-01-06T01:17:41;4.95;;;2.55;;
30303;SDS011;17112;48.636;10.152;2024-01-06T01:20:07;4.50;;;2.60;;
30303;SDS011;17112;48.636;10.152;2024-01-06T01:22:33;6.68;;;2.60;;
30303;SDS011;17112;48.636;10.152;2024-01-06T01:24:59;7.53;;;2.35;;
30303;SDS011;17112;48.636;10.152;2024-01-06T01:27:30;5.57;;;2.28;;
30303;SDS011;17112;48.636;10.152;2024-01-06T01:29:56;4.28;;;2.20;;
30303;SDS011;17112;48.636;10.152;2024-01-06T01:32:22;3.80;;;2.20;;
30303;SDS011;17112;48.636;10.152;2024-01-06T01:34:47;6.38;;;2.70;;
30303;SDS011;17112;48.636;10.152;2024-01-06T01:37:13;3.78;;;2.25;;
30303;SDS011;17112;48.636;10.152;2024-01-06T01:39:40;11.00;;;2.45;;
30303;SDS011;17112;48.636;10.152;2024-01-06T01:42:06;4.22;;;2.13;;
30303;SDS011;17112;48.636;10.152;2024-01-06T01:44:31;4.07;;;2.03;;
30303;SDS011;17112;48.636;10.152;2024-01-06T01:46:57;3.83;;;2.38;;
30303;SDS011;17112;48.636;10.152;2024-01-06T01:49:24;4.97;;;2.33;;
30303;SDS011;17112;48.636;10.152;2024-01-06T01:51:50;4.22;;;2.40;;
30303;SDS011;17112;48.636;10.152;2024-01-06T01:54:17;5.22;;;2.35;;
30303;SDS011;17112;48.636;10.152;2024-01-06T01:56:43;4.03;;;1.90;;
30303;SDS011;17112;48.636;10.152;2024-01-06T01:59:13;5.50;;;2.30;;
30303;SDS011;17112;48.636;10.152;2024-01-06T02:01:41;7.65;;;2.13;;
30303;SDS011;17112;48.636;10.152;2024-01-06T02:04:07;4.88;;;2.38;;
30303;SDS011;17112;48.636;10.152;2024-01-06T02:06:34;5.55;;;1.80;;
30303;SDS011;17112;48.636;10.152;2024-01-06T02:09:00;3.42;;;1.50;;
30303;SDS011;17112;48.636;10.152;2024-01-06T02:11:26;6.10;;;1.90;;
30303;SDS011;17112;48.636;10.152;2024-01-06T02:13:51;2.55;;;1.85;;
30303;SDS011;17112;48.636;10.152;2024-01-06T02:16:17;4.15;;;2.00;;
30303;SDS011;17112;48.636;10.152;2024-01-06T02:18:43;4.03;;;1.80;;
30303;SDS011;17112;48.636;10.152;2024-01-06T02:21:08;5.55;;;1.80;;
30303;SDS011;17112;48.636;10.152;2024-01-06T02:23:35;5.13;;;1.80;;
30303;SDS011;17112;48.636;10.152;2024-01-06T02:26:02;3.22;;;1.48;;
30303;SDS011;17112;48.636;10.152;2024-01-06T02:28:28;3.78;;;1.45;;
30303;SDS011;17112;48.636;10.152;2024-01-06T02:30:53;6.88;;;1.92;;
30303;SDS011;17112;48.636;10.152;2024-01-06T02:33:19;5.78;;;1.70;;
30303;SDS011;17112;48.636;10.152;2024-01-06T02:35:45;4.88;;;2.03;;
30303;SDS011;17112;48.636;10.152;2024-01-06T02:38:11;5.05;;;1.70;;
30303;SDS011;17112;48.636;10.152;2024-01-06T02:40:37;4.15;;;1.85;;
30303;SDS011;17112;48.636;10.152;2024-01-06T02:43:03;3.65;;;2.10;;
30303;SDS011;17112;48.636;10.152;2024-01-06T02:45:28;4.10;;;1.85;;
30303;SDS011;17112;48.636;10.152;2024-01-06T02:47:55;4.25;;;1.80;;
30303;SDS011;17112;48.636;10.152;2024-01-06T02:50:20;3.40;;;1.77;;
30303;SDS011;17112;48.636;10.152;2024-01-06T02:52:47;3.03;;;2.00;;
30303;SDS011;17112;48.636;10.152;2024-01-06T02:55:12;3.50;;;1.80;;
30303;SDS011;17112;48.636;10.152;2024-01-06T02:57:38;3.17;;;1.70;;
30303;SDS011;17112;48.636;10.152;2024-01-06T03:00:06;6.82;;;2.00;;
30303;SDS011;17112;48.636;10.152;2024-01-06T03:02:32;4.43;;;2.03;;
30303;SDS011;17112;48.636;10.152;2024-01-06T03:04:58;5.55;;;2.00;;
30303;SDS011;17112;48.636;10.152;2024-01-06T03:07:24;2.63;;;1.77;;
30303;SDS011;17112;48.636;10.152;2024-01-06T03:09:49;3.47;;;1.92;;
30303;SDS011;17112;48.636;10.152;2024-01-06T03:12:15;5.47;;;1.88;;
30303;SDS011;17112;48.636;10.152;2024-01-06T03:14:41;5.40;;;1.70;;
30303;SDS011;17112;48.636;10.152;2024-01-06T03:17:06;4.82;;;1.98;;
30303;SDS011;17112;48.636;10.152;2024-01-06T03:19:32;4.53;;;1.63;;
30303;SDS011;17112;48.636;10.152;2024-01-06T03:21:58;4.22;;;1.92;;
30303;SDS011;17112;48.636;10.152;2024-01-06T03:24:24;6.97;;;2.60;;
30303;SDS011;17112;48.636;10.152;2024-01-06T03:26:50;4.82;;;1.90;;
30303;SDS011;17112;48.636;10.152;2024-01-06T03:29:16;4.85;;;1.90;;
30303;SDS011;17112;48.636;10.152;2024-01-06T03:31:42;4.22;;;1.67;;
30303;SDS011;17112;48.636;10.152;2024-01-06T03:34:12;4.70;;;1.70;;
30303;SDS011;17112;48.636;10.152;2024-01-06T03:36:38;3.42;;;1.77;;
30303;SDS011;17112;48.636;10.152;2024-01-06T03:39:05;5.90;;;2.00;;
30303;SDS011;17112;48.636;10.152;2024-01-06T03:41:31;2.78;;;1.70;;
30303;SDS011;17112;48.636;10.152;2024-01-06T03:43:57;7.53;;;1.85;;
30303;SDS011;17112;48.636;10.152;2024-01-06T03:46:23;7.22;;;1.85;;
30303;SDS011;17112;48.636;10.152;2024-01-06T03:48:50;11.50;;;2.15;;
30303;SDS011;17112;48.636;10.152;2024-01-06T03:51:16;6.97;;;2.10;;
30303;SDS011;17112;48.636;10.152;2024-01-06T03:53:41;9.52;;;2.28;;
30303;SDS011;17112;48.636;10.152;2024-01-06T03:56:07;5.70;;;1.90;;
30303;SDS011;17112;48.636;10.152;2024-01-06T03:58:33;11.85;;;2.50;;
30303;SDS011;17112;48.636;10.152;2024-01-06T04:00:59;5.53;;;1.92;;
30303;SDS011;17112;48.636;10.152;2024-01-06T04:03:25;8.00;;;2.60;;
30303;SDS011;17112;48.636;10.152;2024-01-06T04:05:51;6.43;;;2.03;;
30303;SDS011;17112;48.636;10.152;2024-01-06T04:08:17;5.22;;;1.70;;
30303;SDS011;17112;48.636;10.152;2024-01-06T04:10:43;5.43;;;1.88;;
30303;SDS011;17112;48.636;10.152;2024-01-06T04:13:10;9.73;;;1.92;;
30303;SDS011;17112;48.636;10.152;2024-01-06T04:15:36;7.18;;;2.20;;
30303;SDS011;17112;48.636;10.152;2024-01-06T04:18:02;7.90;;;2.10;;
30303;SDS011;17112;48.636;10.152;2024-01-06T04:20:29;4.53;;;2.13;;
30303;SDS011;17112;48.636;10.152;2024-01-06T04:22:55;6.55;;;1.83;;
30303;SDS011;17112;48.636;10.152;2024-01-06T04:25:20;4.18;;;1.80;;
30303;SDS011;17112;48.636;10.152;2024-01-06T04:27:46;5.57;;;2.17;;
30303;SDS011;17112;48.636;10.152;2024-01-06T04:30:13;8.93;;;2.03;;
30303;SDS011;17112;48.636;10.152;2024-01-06T04:32:40;6.07;;;1.90;;
30303;SDS011;17112;48.636;10.152;2024-01-06T04:35:06;2.70;;;1.58;;
30303;SDS011;17112;48.636;10.152;2024-01-06T04:37:32;7.60;;;2.13;;
30303;SDS011;17112;48.636;10.152;2024-01-06T04:39:57;4.32;;;1.65;;
30303;SDS011;17112;48.636;10.152;2024-01-06T04:42:23;5.90;;;1.95;;
30303;SDS011;17112;48.636;10.152;2024-01-06T04:44:52;6.78;;;1.90;;
30303;SDS011;17112;48.636;10.152;2024-01-06T04:47:23;6.35;;;2.28;;
30303;SDS011;17112;48.636;10.152;2024-01-06T04:49:50;7.25;;;1.98;;
30303;SDS011;17112;48.636;10.152;2024-01-06T04:52:16;4.85;;;1.75;;
30303;SDS011;17112;48.636;10.152;2024-01-06T04:54:41;3.13;;;1.70;;
30303;SDS011;17112;48.636;10.152;2024-01-06T04:57:07;2.20;;;1.60;;
30303;SDS011;17112;48.636;10.152;2024-01-06T04:59:33;10.95;;;2.47;;
30303;SDS011;17112;48.636;10.152;2024-01-06T05:01:58;6.43;;;2.00;;
30303;SDS011;17112;48.636;10.152;2024-01-06T05:04:24;3.67;;;2.00;;
30303;SDS011;17112;48.636;10.152;2024-01-06T05:06:53;4.38;;;1.85;;
30303;SDS011;17112;48.636;10.152;2024-01-06T05:09:19;3.55;;;1.83;;
30303;SDS011;17112;48.636;10.152;2024-01-06T05:11:45;4.28;;;1.98;;
30303;SDS011;17112;48.636;10.152;2024-01-06T05:14:11;6.70;;;2.33;;
30303;SDS011;17112;48.636;10.152;2024-01-06T05:16:37;3.17;;;1.55;;
30303;SDS011;17112;48.636;10.152;2024-01-06T05:19:03;5.65;;;2.15;;
30303;SDS011;17112;48.636;10.152;2024-01-06T05:21:29;6.45;;;2.25;;
30303;SDS011;17112;48.636;10.152;2024-01-06T05:23:55;3.75;;;1.67;;
30303;SDS011;17112;48.636;10.152;2024-01-06T05:26:20;6.38;;;1.92;;
30303;SDS011;17112;48.636;10.152;2024-01-06T05:28:46;8.38;;;2.10;;
30303;SDS011;17112;48.636;10.152;2024-01-06T05:31:12;9.73;;;1.70;;
30303;SDS011;17112;48.636;10.152;2024-01-06T05:33:37;6.35;;;1.92;;
30303;SDS011;17112;48.636;10.152;2024-01-06T05:36:03;6.80;;;2.00;;
30303;SDS011;17112;48.636;10.152;2024-01-06T05:38:29;5.25;;;2.30;;
30303;SDS011;17112;48.636;10.152;2024-01-06T05:40:55;4.22;;;1.90;;
30303;SDS011;17112;48.636;10.152;2024-01-06T05:43:21;4.72;;;2.00;;
30303;SDS011;17112;48.636;10.152;2024-01-06T05:45:46;3.63;;;1.90;;
30303;SDS011;17112;48.636;10.152;2024-01-06T05:48:12;3.45;;;1.65;;
30303;SDS011;17112;48.636;10.152;2024-01-06T05:50:38;4.38;;;1.90;;
30303;SDS011;17112;48.636;10.152;2024-01-06T05:53:05;5.45;;;2.22;;
30303;SDS011;17112;48.636;10.152;2024-01-06T05:55:31;5.28;;;1.90;;
30303;SDS011;17112;48.636;10.152;2024-01-06T05:57:56;4.05;;;2.00;;
30303;SDS011;17112;48.636;10.152;2024-01-06T06:00:22;6.00;;;1.60;;
30303;SDS011;17112;48.636;10.152;2024-01-06T06:02:48;3.97;;;1.60;;
30303;SDS011;17112;48.636;10.152;2024-01-06T06:05:13;3.75;;;1.70;;
30303;SDS011;17112;48.636;10.152;2024-01-06T06:07:39;4.15;;;1.70;;
30303;SDS011;17112;48.636;10.152;2024-01-06T06:10:08;8.95;;;1.65;;
30303;SDS011;17112;48.636;10.152;2024-01-06T06:12:35;2.78;;;1.60;;
30303;SDS011;17112;48.636;10.152;2024-01-06T06:15:02;3.88;;;1.40;;
30303;SDS011;17112;48.636;10.152;2024-01-06T06:17:29;6.32;;;1.92;;
30303;SDS011;17112;48.636;10.152;2024-01-06T06:19:57;4.47;;;2.17;;
30303;SDS011;17112;48.636;10.152;2024-01-06T06:22:23;6.85;;;1.73;;
30303;SDS011;17112;48.636;10.152;2024-01-06T06:24:51;3.85;;;1.40;;
30303;SDS011;17112;48.636;10.152;2024-01-06T06:27:16;2.63;;;1.45;;
30303;SDS011;17112;48.636;10.152;2024-01-06T06:29:42;2.95;;;1.80;;
30303;SDS011;17112;48.636;10.152;2024-01-06T06:32:08;3.38;;;1.60;;
30303;SDS011;17112;48.636;10.152;2024-01-06T06:34:33;4.35;;;1.65;;
30303;SDS011;17112;48.636;10.152;2024-01-06T06:36:59;4.40;;;1.67;;
30303;SDS011;17112;48.636;10.152;2024-01-06T06:39:25;9.68;;;3.50;;
30303;SDS011;17112;48.636;10.152;2024-01-06T06:41:52;12.43;;;4.45;;
30303;SDS011;17112;48.636;10.152;2024-01-06T06:44:17;13.55;;;5.05;;
30303;SDS011;17112;48.636;10.152;2024-01-06T06:46:43;12.77;;;4.32;;
30303;SDS011;17112;48.636;10.152;2024-01-06T06:49:09;10.07;;;4.43;;
30303;SDS011;17112;48.636;10.152;2024-01-06T06:51:34;11.88;;;5.38;;
30303;SDS011;17112;48.636;10.152;2024-01-06T06:54:00;13.75;;;4.90;;
30303;SDS011;17112;48.636;10.152;2024-01-06T06:56:26;7.22;;;4.03;;
30303;SDS011;17112;48.636;10.152;2024-01-06T06:58:51;7.68;;;3.38;;
30303;SDS011;17112;48.636;10.152;2024-01-06T07:01:17;6.50;;;2.90;;
30303;SDS011;17112;48.636;10.152;2024-01-06T07:03:43;4.90;;;2.40;;
30303;SDS011;17112;48.636;10.152;2024-01-06T07:06:12;5.70;;;2.42;;
30303;SDS011;17112;48.636;10.152;2024-01-06T07:08:39;9.32;;;2.40;;
30303;SDS011;17112;48.636;10.152;2024-01-06T07:11:06;7.22;;;2.40;;
30303;SDS011;17112;48.636;10.152;2024-01-06T07:13:32;6.15;;;2.90;;
30303;SDS011;17112;48.636;10.152;2024-01-06T07:15:58;5.25;;;3.15;;
30303;SDS011;17112;48.636;10.152;2024-01-06T07:18:24;6.45;;;2.67;;
30303;SDS011;17112;48.636;10.152;2024-01-06T07:20:50;6.45;;;2.33;;
30303;SDS011;17112;48.636;10.152;2024-01-06T07:23:16;5.38;;;1.95;;
30303;SDS011;17112;48.636;10.152;2024-01-06T07:25:42;4.28;;;1.70;;
30303;SDS011;17112;48.636;10.152;2024-01-06T07:28:08;9.63;;;2.08;;
30303;SDS011;17112;48.636;10.152;2024-01-06T07:30:34;5.40;;;1.75;;
30303;SDS011;17112;48.636;10.152;2024-01-06T07:32:59;3.08;;;1.40;;
30303;SDS011;17112;48.636;10.152;2024-01-06T07:35:25;5.30;;;1.48;;
30303;SDS011;17112;48.636;10.152;2024-01-06T07:37:51;4.22;;;1.40;;
30303;SDS011;17112;48.636;10.152;2024-01-06T07:40:18;6.78;;;1.50;;
30303;SDS011;17112;48.636;10.152;2024-01-06T07:42:43;5.18;;;1.55;;
30303;SDS011;17112;48.636;10.152;2024-01-06T07:45:09;7.70;;;1.70;;
30303;SDS011;17112;48.636;10.152;2024-01-06T07:47:36;4.95;;;1.15;;
30303;SDS011;17112;48.636;10.152;2024-01-06T07:50:03;24.05;;;9.55;;
30303;SDS011;17112;48.636;10.152;2024-01-06T07:52:30;9.43;;;3.47;;
30303;SDS011;17112;48.636;10.152;2024-01-06T07:54:55;5.10;;;2.03;;
30303;SDS011;17112;48.636;10.152;2024-01-06T07:57:21;10.77;;;1.90;;
30303;SDS011;17112;48.636;10.152;2024-01-06T07:59:47;6.13;;;2.08;;
30303;SDS011;17112;48.636;10.152;2024-01-06T08:02:12;7.97;;;2.47;;
30303;SDS011;17112;48.636;10.152;2024-01-06T08:04:38;5.45;;;2.10;;
30303;SDS011;17112;48.636;10.152;2024-01-06T08:07:04;3.45;;;1.50;;
30303;SDS011;17112;48.636;10.152;2024-01-06T08:09:29;5.38;;;2.00;;
30303;SDS011;17112;48.636;10.152;2024-01-06T08:11:55;9.55;;;4.20;;
30303;SDS011;17112;48.636;10.152;2024-01-06T08:14:21;15.45;;;7.65;;
30303;SDS011;17112;48.636;10.152;2024-01-06T08:16:47;19.05;;;8.70;;
30303;SDS011;17112;48.636;10.152;2024-01-06T08:19:12;13.13;;;6.53;;
30303;SDS011;17112;48.636;10.152;2024-01-06T08:21:38;11.80;;;6.40;;
30303;SDS011;17112;48.636;10.152;2024-01-06T08:24:04;17.60;;;6.28;;
30303;SDS011;17112;48.636;10.152;2024-01-06T08:26:29;11.40;;;5.15;;
30303;SDS011;17112;48.636;10.152;2024-01-06T08:28:56;12.30;;;5.63;;
30303;SDS011;17112;48.636;10.152;2024-01-06T08:31:21;12.32;;;5.63;;
30303;SDS011;17112;48.636;10.152;2024-01-06T08:33:48;8.77;;;4.55;;
30303;SDS011;17112;48.636;10.152;2024-01-06T08:36:13;14.20;;;4.93;;
30303;SDS011;17112;48.636;10.152;2024-01-06T08:38:39;10.18;;;5.70;;
30303;SDS011;17112;48.636;10.152;2024-01-06T08:41:04;8.10;;;3.67;;
30303;SDS011;17112;48.636;10.152;2024-01-06T08:43:30;7.38;;;3.83;;
30303;SDS011;17112;48.636;10.152;2024-01-06T08:45:56;8.98;;;3.67;;
30303;SDS011;17112;48.636;10.152;2024-01-06T08:48:23;9.57;;;5.63;;
30303;SDS011;17112;48.636;10.152;2024-01-06T08:50:49;14.85;;;8.48;;
30303;SDS011;17112;48.636;10.152;2024-01-06T08:53:15;8.40;;;4.25;;
30303;SDS011;17112;48.636;10.152;2024-01-06T08:55:41;8.25;;;3.85;;
30303;SDS011;17112;48.636;10.152;2024-01-06T08:58:07;9.60;;;3.75;;
30303;SDS011;17112;48.636;10.152;2024-01-06T09:00:32;6.03;;;3.10;;
30303;SDS011;17112;48.636;10.152;2024-01-06T09:02:58;6.80;;;2.50;;
30303;SDS011;17112;48.636;10.152;2024-01-06T09:05:25;5.80;;;2.42;;
30303;SDS011;17112;48.636;10.152;2024-01-06T09:07:50;4.03;;;2.15;;
30303;SDS011;17112;48.636;10.152;2024-01-06T09:10:16;10.35;;;5.25;;
30303;SDS011;17112;48.636;10.152;2024-01-06T09:12:42;8.02;;;3.88;;
30303;SDS011;17112;48.636;10.152;2024-01-06T09:15:08;5.18;;;2.75;;
30303;SDS011;17112;48.636;10.152;2024-01-06T09:17:34;6.53;;;2.92;;
30303;SDS011;17112;48.636;10.152;2024-01-06T09:20:00;6.70;;;2.90;;
30303;SDS011;17112;48.636;10.152;2024-01-06T09:22:26;5.97;;;2.50;;
30303;SDS011;17112;48.636;10.152;2024-01-06T09:24:52;7.43;;;2.67;;
30303;SDS011;17112;48.636;10.152;2024-01-06T09:27:18;4.93;;;2.28;;
30303;SDS011;17112;48.636;10.152;2024-01-06T09:29:44;4.15;;;2.30;;
30303;SDS011;17112;48.636;10.152;2024-01-06T09:32:10;5.50;;;2.30;;
30303;SDS011;17112;48.636;10.152;2024-01-06T09:34:37;5.65;;;2.08;;
30303;SDS011;17112;48.636;10.152;2024-01-06T09:37:03;4.80;;;2.33;;
30303;SDS011;17112;48.636;10.152;2024-01-06T09:39:29;5.32;;;2.38;;
30303;SDS011;17112;48.636;10.152;2024-01-06T09:41:56;7.88;;;2.40;;
30303;SDS011;17112;48.636;10.152;2024-01-06T09:44:22;8.32;;;2.22;;
30303;SDS011;17112;48.636;10.152;2024-01-06T09:46:48;2.90;;;1.92;;
30303;SDS011;17112;48.636;10.152;2024-01-06T09:49:15;7.00;;;3.00;;
30303;SDS011;17112;48.636;10.152;2024-01-06T09:51:48;6.43;;;2.55;;
30303;SDS011;17112;48.636;10.152;2024-01-06T09:54:16;4.90;;;2.20;;
30303;SDS011;17112;48.636;10.152;2024-01-06T09:56:49;2.47;;;1.83;;
30303;SDS011;17112;48.636;10.152;2024-01-06T09:59:15;4.47;;;2.00;;
30303;SDS011;17112;48.636;10.152;2024-01-06T10:01:41;4.30;;;1.92;;
30303;SDS011;17112;48.636;10.152;2024-01-06T10:04:08;8.43;;;2.65;;
30303;SDS011;17112;48.636;10.152;2024-01-06T10:06:33;4.35;;;1.70;;
30303;SDS011;17112;48.636;10.152;2024-01-06T10:09:00;6.53;;;1.75;;
30303;SDS011;17112;48.636;10.152;2024-01-06T10:11:26;6.15;;;1.80;;
30303;SDS011;17112;48.636;10.152;2024-01-06T10:13:53;9.98;;;2.20;;
30303;SDS011;17112;48.636;10.152;2024-01-06T10:16:21;5.60;;;1.63;;
30303;SDS011;17112;48.636;10.152;2024-01-06T10:18:47;10.05;;;2.13;;
30303;SDS011;17112;48.636;10.152;2024-01-06T10:21:13;3.92;;;1.98;;
30303;SDS011;17112;48.636;10.152;2024-01-06T10:23:42;4.45;;;1.63;;
30303;SDS011;17112;48.636;10.152;2024-01-06T10:26:08;6.15;;;2.90;;
30303;SDS011;17112;48.636;10.152;2024-01-06T10:28:37;6.45;;;2.40;;
30303;SDS011;17112;48.636;10.152;2024-01-06T10:31:03;4.53;;;2.03;;
30303;SDS011;17112;48.636;10.152;2024-01-06T10:33:29;4.68;;;1.88;;
30303;SDS011;17112;48.636;10.152;2024-01-06T10:35:59;5.45;;;1.77;;
30303;SDS011;17112;48.636;10.152;2024-01-06T10:38:27;6.00;;;2.00;;
30303;SDS011;17112;48.636;10.152;2024-01-06T10:40:57;9.98;;;2.22;;
30303;SDS011;17112;48.636;10.152;2024-01-06T10:43:34;5.70;;;1.83;;
30303;SDS011;17112;48.636;10.152;2024-01-06T10:46:06;5.93;;;1.90;;
30303;SDS011;17112;48.636;10.152;2024-01-06T10:48:36;4.07;;;2.10;;
30303;SDS011;17112;48.636;10.152;2024-01-06T10:51:11;3.03;;;1.52;;
30303;SDS011;17112;48.636;10.152;2024-01-06T10:53:39;5.65;;;2.10;;
30303;SDS011;17112;48.636;10.152;2024-01-06T10:56:06;9.35;;;5.45;;
30303;SDS011;17112;48.636;10.152;2024-01-06T10:58:35;8.02;;;2.78;;
30303;SDS011;17112;48.636;10.152;2024-01-06T11:01:11;3.38;;;2.00;;
30303;SDS011;17112;48.636;10.152;2024-01-06T11:03:37;5.00;;;2.55;;
30303;SDS011;17112;48.636;10.152;2024-01-06T11:06:07;2.85;;;1.42;;
30303;SDS011;17112;48.636;10.152;2024-01-06T11:09:24;4.97;;;2.05;;
30303;SDS011;17112;48.636;10.152;2024-01-06T11:11:52;6.28;;;1.70;;
30303;SDS011;17112;48.636;10.152;2024-01-06T11:14:23;4.53;;;1.88;;
30303;SDS011;17112;48.636;10.152;2024-01-06T11:16:50;4.85;;;2.08;;
30303;SDS011;17112;48.636;10.152;2024-01-06T11:25:08;5.88;;;1.52;;
30303;SDS011;17112;48.636;10.152;2024-01-06T11:27:38;2.97;;;1.48;;
30303;SDS011;17112;48.636;10.152;2024-01-06T11:30:07;3.78;;;1.70;;
30303;SDS011;17112;48.636;10.152;2024-01-06T11:32:33;3.40;;;1.75;;
30303;SDS011;17112;48.636;10.152;2024-01-06T11:35:08;6.20;;;2.42;;
30303;SDS011;17112;48.636;10.152;2024-01-06T11:37:36;4.43;;;2.00;;
30303;SDS011;17112;48.636;10.152;2024-01-06T11:45:26;1.00;;;0.90;;
30303;SDS011;17112;48.636;10.152;2024-01-06T11:47:56;3.67;;;1.27;;
30303;SDS011;17112;48.636;10.152;2024-01-06T11:50:27;1.77;;;1.33;;
30303;SDS011;17112;48.636;10.152;2024-01-06T11:52:54;1.33;;;0.90;;
30303;SDS011;17112;48.636;10.152;2024-01-06T11:55:21;1.10;;;0.70;;
30303;SDS011;17112;48.636;10.152;2024-01-06T11:57:46;2.50;;;1.00;;
30303;SDS011;17112;48.636;10.152;2024-01-06T12:00:16;2.92;;;0.77;;
30303;SDS011;17112;48.636;10.152;2024-01-06T12:02:42;1.20;;;0.80;;
30303;SDS011;17112;48.636;10.152;2024-01-06T12:05:15;1.45;;;0.75;;
30303;SDS011;17112;48.636;10.152;2024-01-06T12:07:43;1.17;;;1.08;;
30303;SDS011;17112;48.636;10.152;2024-01-06T12:10:31;2.50;;;0.90;;
30303;SDS011;17112;48.636;10.152;2024-01-06T12:12:59;1.13;;;0.80;;
30303;SDS011;17112;48.636;10.152;2024-01-06T12:15:25;1.20;;;0.82;;
30303;SDS011;17112;48.636;10.152;2024-01-06T12:17:52;1.35;;;0.68;;
30303;SDS011;17112;48.636;10.152;2024-01-06T12:20:18;1.77;;;1.10;;
30303;SDS011;17112;48.636;10.152;2024-01-06T12:22:44;1.73;;;0.90;;
30303;SDS011;17112;48.636;10.152;2024-01-06T12:25:09;2.28;;;0.73;;
30303;SDS011;17112;48.636;10.152;2024-01-06T12:27:35;1.35;;;0.85;;
30303;SDS011;17112;48.636;10.152;2024-01-06T12:30:01;1.30;;;1.00;;
30303;SDS011;17112;48.636;10.152;2024-01-06T12:32:28;1.33;;;1.02;;
30303;SDS011;17112;48.636;10.152;2024-01-06T12:34:53;1.42;;;1.13;;
30303;SDS011;17112;48.636;10.152;2024-01-06T12:37:22;2.25;;;1.40;;
30303;SDS011;17112;48.636;10.152;2024-01-06T12:39:48;1.42;;;1.05;;
30303;SDS011;17112;48.636;10.152;2024-01-06T12:42:16;1.48;;;0.88;;
30303;SDS011;17112;48.636;10.152;2024-01-06T12:44:45;2.35;;;0.90;;
30303;SDS011;17112;48.636;10.152;2024-01-06T12:47:16;2.10;;;1.10;;
30303;SDS011;17112;48.636;10.152;2024-01-06T12:49:43;3.75;;;0.90;;
30303;SDS011;17112;48.636;10.152;2024-01-06T12:52:09;1.00;;;0.80;;
30303;SDS011;17112;48.636;10.152;2024-01-06T12:54:35;1.38;;;0.90;;
30303;SDS011;17112;48.636;10.152;2024-01-06T12:57:00;2.50;;;1.10;;
30303;SDS011;17112;48.636;10.152;2024-01-06T12:59:26;3.53;;;1.50;;
30303;SDS011;17112;48.636;10.152;2024-01-06T13:01:52;4.88;;;1.50;;
30303;SDS011;17112;48.636;10.152;2024-01-06T13:04:17;3.75;;;1.40;;
30303;SDS011;17112;48.636;10.152;2024-01-06T13:06:43;1.67;;;1.00;;
30303;SDS011;17112;48.636;10.152;2024-01-06T13:09:09;5.35;;;1.50;;
30303;SDS011;17112;48.636;10.152;2024-01-06T13:11:41;2.65;;;1.70;;
30303;SDS011;17112;48.636;10.152;2024-01-06T13:14:07;4.40;;;1.95;;
30303;SDS011;17112;48.636;10.152;2024-01-06T13:16:32;2.70;;;1.88;;
30303;SDS011;17112;48.636;10.152;2024-01-06T13:18:59;4.18;;;1.80;;
30303;SDS011;17112;48.636;10.152;2024-01-06T13:21:25;2.60;;;1.58;;
30303;SDS011;17112;48.636;10.152;2024-01-06T13:23:53;1.42;;;1.13;;
30303;SDS011;17112;48.636;10.152;2024-01-06T13:26:19;2.10;;;1.30;;
30303;SDS011;17112;48.636;10.152;2024-01-06T13:28:44;1.77;;;1.30;;
30303;SDS011;17112;48.636;10.152;2024-01-06T13:31:11;1.35;;;1.10;;
30303;SDS011;17112;48.636;10.152;2024-01-06T13:33:37;2.88;;;1.63;;
30303;SDS011;17112;48.636;10.152;2024-01-06T13:36:03;8.30;;;3.90;;
30303;SDS011;17112;48.636;10.152;2024-01-06T13:38:29;5.47;;;2.13;;
30303;SDS011;17112;48.636;10.152;2024-01-06T13:40:55;2.55;;;1.50;;
30303;SDS011;17112;48.636;10.152;2024-01-06T13:43:21;3.03;;;1.50;;
30303;SDS011;17112;48.636;10.152;2024-01-06T13:45:46;3.72;;;1.83;;
30303;SDS011;17112;48.636;10.152;2024-01-06T13:48:15;2.25;;;1.73;;
30303;SDS011;17112;48.636;10.152;2024-01-06T13:50:41;2.97;;;1.92;;
30303;SDS011;17112;48.636;10.152;2024-01-06T13:53:07;3.17;;;1.80;;
30303;SDS011;17112;48.636;10.152;2024-01-06T13:55:32;2.83;;;1.95;;
30303;SDS011;17112;48.636;10.152;2024-01-06T13:57:59;4.75;;;2.13;;
30303;SDS011;17112;48.636;10.152;2024-01-06T14:00:24;3.95;;;1.95;;
30303;SDS011;17112;48.636;10.152;2024-01-06T14:02:51;1.77;;;1.50;;
30303;SDS011;17112;48.636;10.152;2024-01-06T14:05:17;2.22;;;1.70;;
30303;SDS011;17112;48.636;10.152;2024-01-06T14:07:44;3.83;;;1.92;;
30303;SDS011;17112;48.636;10.152;2024-01-06T14:10:12;2.55;;;1.67;;
30303;SDS011;17112;48.636;10.152;2024-01-06T14:12:39;2.15;;;1.67;;
30303;SDS011;17112;48.636;10.152;2024-01-06T14:15:05;2.90;;;1.90;;
30303;SDS011;17112;48.636;10.152;2024-01-06T14:17:32;3.10;;;1.95;;
30303;SDS011;17112;48.636;10.152;2024-01-06T14:19:59;2.60;;;1.80;;
30303;SDS011;17112;48.636;10.152;2024-01-06T14:22:26;2.67;;;1.83;;
30303;SDS011;17112;48.636;10.152;2024-01-06T14:24:52;4.28;;;2.40;;
30303;SDS011;17112;48.636;10.152;2024-01-06T14:27:18;5.45;;;2.10;;
30303;SDS011;17112;48.636;10.152;2024-01-06T14:29:45;3.78;;;1.80;;
30303;SDS011;17112;48.636;10.152;2024-01-06T14:32:12;2.47;;;2.20;;
30303;SDS011;17112;48.636;10.152;2024-01-06T14:34:38;2.75;;;1.80;;
30303;SDS011;17112;48.636;10.152;2024-01-06T14:37:04;2.30;;;1.80;;
30303;SDS011;17112;48.636;10.152;2024-01-06T14:39:30;3.50;;;1.85;;
30303;SDS011;17112;48.636;10.152;2024-01-06T14:41:56;2.63;;;1.75;;